Terminal Aerodrome Forecast
Issued by NWS Caribou, ME

Home | Current Version | Previous Version | Text Only | Print | Product List | Glossary On
Versions: 1 2 3 4 5 6 7 8 9 10 11 12 13 14 15 16 17 18 19 20 21 22 23 24 25 26 27 28 29 30 31 32 33
000
FTUS41 KCAR 290318 AAB
TAFBGR
TAF AMD
KBGR 290318Z 2903/2924 23004KT 1/4SM FG OVC002
     FM290500 VRB03KT 3/4SM BR BKN002
     FM291000 00000KT P6SM VCSH OVC100
     FM291500 23006KT P6SM -SHRA OVC070
     FM291800 24012G22KT P6SM SCT045=

USA.gov is the U.S. government's official web portal to all federal, state and local government web resources and services.